sensor_id;sensor_type;location;lat;lon;timestamp;temperature;humidity
25640;DHT22;13497;48.322;16.204;2022-11-15T00:00:16;8.40;99.90
25640;DHT22;13497;48.322;16.204;2022-11-15T00:02:42;8.50;99.90
25640;DHT22;13497;48.322;16.204;2022-11-15T00:05:08;8.40;99.90
25640;DHT22;13497;48.322;16.204;2022-11-15T00:07:33;8.40;99.90
25640;DHT22;13497;48.322;16.204;2022-11-15T00:09:59;8.30;99.90
25640;DHT22;13497;48.322;16.204;2022-11-15T00:12:27;8.30;99.90
25640;DHT22;13497;48.322;16.204;2022-11-15T00:14:53;8.20;99.90
25640;DHT22;13497;48.322;16.204;2022-11-15T00:17:18;8.20;99.90
25640;DHT22;13497;48.322;16.204;2022-11-15T00:19:45;8.10;99.90
25640;DHT22;13497;48.322;16.204;2022-11-15T00:22:10;8.10;99.90
25640;DHT22;13497;48.322;16.204;2022-11-15T00:24:36;8.00;99.90
25640;DHT22;13497;48.322;16.204;2022-11-15T00:27:02;7.90;99.90
25640;DHT22;13497;48.322;16.204;2022-11-15T00:29:27;7.80;99.90
25640;DHT22;13497;48.322;16.204;2022-11-15T00:31:53;7.70;99.90
25640;DHT22;13497;48.322;16.204;2022-11-15T00:34:18;7.60;99.90
25640;DHT22;13497;48.322;16.204;2022-11-15T00:36:44;7.60;99.90
25640;DHT22;13497;48.322;16.204;2022-11-15T00:39:10;7.60;99.90
25640;DHT22;13497;48.322;16.204;2022-11-15T00:41:35;7.70;99.90
25640;DHT22;13497;48.322;16.204;2022-11-15T00:44:01;7.60;99.90
25640;DHT22;13497;48.322;16.204;2022-11-15T00:46:27;7.60;99.90
25640;DHT22;13497;48.322;16.204;2022-11-15T00:48:52;7.60;99.90
25640;DHT22;13497;48.322;16.204;2022-11-15T00:51:18;7.60;99.90
25640;DHT22;13497;48.322;16.204;2022-11-15T00:53:43;7.70;99.90
25640;DHT22;13497;48.322;16.204;2022-11-15T00:56:09;7.80;99.90
25640;DHT22;13497;48.322;16.204;2022-11-15T00:58:34;7.70;99.90
25640;DHT22;13497;48.322;16.204;2022-11-15T01:01:12;7.80;99.90
25640;DHT22;13497;48.322;16.204;2022-11-15T01:03:39;7.80;99.90
25640;DHT22;13497;48.322;16.204;2022-11-15T01:06:05;7.90;99.90
25640;DHT22;13497;48.322;16.204;2022-11-15T01:08:31;7.90;99.90
25640;DHT22;13497;48.322;16.204;2022-11-15T01:11:15;8.00;99.90
25640;DHT22;13497;48.322;16.204;2022-11-15T01:13:40;8.00;99.90
25640;DHT22;13497;48.322;16.204;2022-11-15T01:16:15;8.10;99.90
25640;DHT22;13497;48.322;16.204;2022-11-15T01:18:42;8.00;99.90
25640;DHT22;13497;48.322;16.204;2022-11-15T01:21:10;8.00;99.90
25640;DHT22;13497;48.322;16.204;2022-11-15T01:23:36;7.90;99.90
25640;DHT22;13497;48.322;16.204;2022-11-15T01:26:04;7.90;99.90
25640;DHT22;13497;48.322;16.204;2022-11-15T01:28:32;7.90;99.90
25640;DHT22;13497;48.322;16.204;2022-11-15T01:30:59;8.00;99.90
25640;DHT22;13497;48.322;16.204;2022-11-15T01:33:25;8.10;99.90
25640;DHT22;13497;48.322;16.204;2022-11-15T01:35:51;8.20;99.90
25640;DHT22;13497;48.322;16.204;2022-11-15T01:38:16;8.20;99.90
25640;DHT22;13497;48.322;16.204;2022-11-15T01:40:42;8.20;99.90
25640;DHT22;13497;48.322;16.204;2022-11-15T01:45:52;8.10;99.90
25640;DHT22;13497;48.322;16.204;2022-11-15T01:48:22;8.10;99.90
25640;DHT22;13497;48.322;16.204;2022-11-15T01:50:51;8.20;99.90
25640;DHT22;13497;48.322;16.204;2022-11-15T01:53:18;8.20;99.90
25640;DHT22;13497;48.322;16.204;2022-11-15T01:55:45;8.20;99.90
25640;DHT22;13497;48.322;16.204;2022-11-15T01:58:11;8.20;99.90
25640;DHT22;13497;48.322;16.204;2022-11-15T02:00:36;8.30;99.90
25640;DHT22;13497;48.322;16.204;2022-11-15T02:03:02;8.30;99.90
25640;DHT22;13497;48.322;16.204;2022-11-15T02:05:30;8.30;99.90
25640;DHT22;13497;48.322;16.204;2022-11-15T02:07:57;8.30;99.90
25640;DHT22;13497;48.322;16.204;2022-11-15T02:10:24;8.30;99.90
25640;DHT22;13497;48.322;16.204;2022-11-15T02:12:50;8.30;99.90
25640;DHT22;13497;48.322;16.204;2022-11-15T02:15:17;8.30;99.90
25640;DHT22;13497;48.322;16.204;2022-11-15T02:20:46;8.20;99.90
25640;DHT22;13497;48.322;16.204;2022-11-15T02:29:17;8.50;99.90
25640;DHT22;13497;48.322;16.204;2022-11-15T02:31:51;8.50;99.90
25640;DHT22;13497;48.322;16.204;2022-11-15T02:40:03;8.10;99.90
25640;DHT22;13497;48.322;16.204;2022-11-15T02:42:35;8.20;99.90
25640;DHT22;13497;48.322;16.204;2022-11-15T02:45:33;8.20;99.90
25640;DHT22;13497;48.322;16.204;2022-11-15T02:48:02;8.10;99.90
25640;DHT22;13497;48.322;16.204;2022-11-15T02:50:30;8.10;99.90
25640;DHT22;13497;48.322;16.204;2022-11-15T02:52:57;8.10;99.90
25640;DHT22;13497;48.322;16.204;2022-11-15T02:55:32;8.20;99.90
25640;DHT22;13497;48.322;16.204;2022-11-15T03:09:35;8.00;99.90
25640;DHT22;13497;48.322;16.204;2022-11-15T03:12:26;8.00;99.90
25640;DHT22;13497;48.322;16.204;2022-11-15T03:15:01;8.10;99.90
25640;DHT22;13497;48.322;16.204;2022-11-15T03:17:33;8.20;99.90
25640;DHT22;13497;48.322;16.204;2022-11-15T03:20:04;8.20;99.90
25640;DHT22;13497;48.322;16.204;2022-11-15T03:22:35;8.20;99.90
25640;DHT22;13497;48.322;16.204;2022-11-15T03:25:05;8.30;99.90
25640;DHT22;13497;48.322;16.204;2022-11-15T03:27:36;8.30;99.90
25640;DHT22;13497;48.322;16.204;2022-11-15T03:30:06;8.40;99.90
25640;DHT22;13497;48.322;16.204;2022-11-15T03:32:37;8.30;99.90
25640;DHT22;13497;48.322;16.204;2022-11-15T03:35:10;8.30;99.90
25640;DHT22;13497;48.322;16.204;2022-11-15T03:40:08;8.20;99.90
25640;DHT22;13497;48.322;16.204;2022-11-15T03:42:51;8.00;99.90
25640;DHT22;13497;48.322;16.204;2022-11-15T03:45:26;8.00;99.90
25640;DHT22;13497;48.322;16.204;2022-11-15T03:48:05;8.10;99.90
25640;DHT22;13497;48.322;16.204;2022-11-15T03:50:34;8.10;99.90
25640;DHT22;13497;48.322;16.204;2022-11-15T03:53:00;8.20;99.90
25640;DHT22;13497;48.322;16.204;2022-11-15T03:55:26;8.20;99.90
25640;DHT22;13497;48.322;16.204;2022-11-15T03:57:54;8.30;99.90
25640;DHT22;13497;48.322;16.204;2022-11-15T04:00:21;8.30;99.90
25640;DHT22;13497;48.322;16.204;2022-11-15T04:02:47;8.20;99.90
25640;DHT22;13497;48.322;16.204;2022-11-15T04:05:12;8.20;99.90
25640;DHT22;13497;48.322;16.204;2022-11-15T04:07:38;8.10;99.90
25640;DHT22;13497;48.322;16.204;2022-11-15T04:10:04;8.10;99.90
25640;DHT22;13497;48.322;16.204;2022-11-15T04:12:32;8.10;99.90
25640;DHT22;13497;48.322;16.204;2022-11-15T04:15:08;8.10;99.90
25640;DHT22;13497;48.322;16.204;2022-11-15T04:17:41;8.10;99.90
25640;DHT22;13497;48.322;16.204;2022-11-15T04:23:13;8.10;99.90
25640;DHT22;13497;48.322;16.204;2022-11-15T04:26:00;8.10;99.90
25640;DHT22;13497;48.322;16.204;2022-11-15T04:28:26;8.10;99.90
25640;DHT22;13497;48.322;16.204;2022-11-15T04:30:52;8.00;99.90
25640;DHT22;13497;48.322;16.204;2022-11-15T04:33:18;8.10;99.90
25640;DHT22;13497;48.322;16.204;2022-11-15T04:35:44;8.10;99.90
25640;DHT22;13497;48.322;16.204;2022-11-15T04:38:29;8.10;99.90
25640;DHT22;13497;48.322;16.204;2022-11-15T04:40:55;8.20;99.90
25640;DHT22;13497;48.322;16.204;2022-11-15T04:43:20;8.20;99.90
25640;DHT22;13497;48.322;16.204;2022-11-15T04:45:46;8.30;99.90
25640;DHT22;13497;48.322;16.204;2022-11-15T04:48:12;8.30;99.90
25640;DHT22;13497;48.322;16.204;2022-11-15T04:50:37;8.30;99.90
25640;DHT22;13497;48.322;16.204;2022-11-15T04:53:03;8.30;99.90
25640;DHT22;13497;48.322;16.204;2022-11-15T04:55:28;8.30;99.90
25640;DHT22;13497;48.322;16.204;2022-11-15T04:57:58;8.30;99.90
25640;DHT22;13497;48.322;16.204;2022-11-15T05:00:25;8.40;99.90
25640;DHT22;13497;48.322;16.204;2022-11-15T05:02:51;8.40;99.90
25640;DHT22;13497;48.322;16.204;2022-11-15T05:05:35;8.40;99.90
25640;DHT22;13497;48.322;16.204;2022-11-15T05:08:01;8.40;99.90
25640;DHT22;13497;48.322;16.204;2022-11-15T05:10:26;8.40;99.90
25640;DHT22;13497;48.322;16.204;2022-11-15T05:12:52;8.40;99.90
25640;DHT22;13497;48.322;16.204;2022-11-15T05:15:17;8.40;99.90
25640;DHT22;13497;48.322;16.204;2022-11-15T05:17:43;8.40;99.90
25640;DHT22;13497;48.322;16.204;2022-11-15T05:20:09;8.40;99.90
25640;DHT22;13497;48.322;16.204;2022-11-15T05:22:35;8.50;99.90
25640;DHT22;13497;48.322;16.204;2022-11-15T05:25:01;8.50;99.90
25640;DHT22;13497;48.322;16.204;2022-11-15T05:27:26;8.50;99.90
25640;DHT22;13497;48.322;16.204;2022-11-15T05:29:52;8.50;99.90
25640;DHT22;13497;48.322;16.204;2022-11-15T05:32:17;8.40;99.90
25640;DHT22;13497;48.322;16.204;2022-11-15T05:34:43;8.30;99.90
25640;DHT22;13497;48.322;16.204;2022-11-15T05:37:09;8.30;99.90
25640;DHT22;13497;48.322;16.204;2022-11-15T05:39:35;8.20;99.90
25640;DHT22;13497;48.322;16.204;2022-11-15T05:42:05;8.30;99.90
25640;DHT22;13497;48.322;16.204;2022-11-15T05:44:34;8.10;99.90
25640;DHT22;13497;48.322;16.204;2022-11-15T05:47:02;8.20;99.90
25640;DHT22;13497;48.322;16.204;2022-11-15T05:49:33;8.20;99.90
25640;DHT22;13497;48.322;16.204;2022-11-15T05:52:00;8.20;99.90
25640;DHT22;13497;48.322;16.204;2022-11-15T05:54:27;8.10;99.90
25640;DHT22;13497;48.322;16.204;2022-11-15T05:56:53;8.00;99.90
25640;DHT22;13497;48.322;16.204;2022-11-15T05:59:21;8.00;99.90
25640;DHT22;13497;48.322;16.204;2022-11-15T06:01:47;8.20;99.90
25640;DHT22;13497;48.322;16.204;2022-11-15T06:04:12;8.20;99.90
25640;DHT22;13497;48.322;16.204;2022-11-15T06:06:38;8.10;99.90
25640;DHT22;13497;48.322;16.204;2022-11-15T06:09:03;8.10;99.90
25640;DHT22;13497;48.322;16.204;2022-11-15T06:11:29;8.20;99.90
25640;DHT22;13497;48.322;16.204;2022-11-15T06:13:56;8.20;99.90
25640;DHT22;13497;48.322;16.204;2022-11-15T06:16:21;8.10;99.90
25640;DHT22;13497;48.322;16.204;2022-11-15T06:18:47;8.20;99.90
25640;DHT22;13497;48.322;16.204;2022-11-15T06:21:13;8.20;99.90
25640;DHT22;13497;48.322;16.204;2022-11-15T06:23:38;8.20;99.90
25640;DHT22;13497;48.322;16.204;2022-11-15T06:26:04;8.20;99.90
25640;DHT22;13497;48.322;16.204;2022-11-15T06:28:31;8.20;99.90
25640;DHT22;13497;48.322;16.204;2022-11-15T06:31:04;8.20;99.90
25640;DHT22;13497;48.322;16.204;2022-11-15T06:33:30;8.30;99.90
25640;DHT22;13497;48.322;16.204;2022-11-15T06:35:59;8.20;99.90
25640;DHT22;13497;48.322;16.204;2022-11-15T06:38:25;8.10;99.90
25640;DHT22;13497;48.322;16.204;2022-11-15T06:40:52;8.10;99.90
25640;DHT22;13497;48.322;16.204;2022-11-15T06:43:18;8.10;99.90
25640;DHT22;13497;48.322;16.204;2022-11-15T06:45:43;8.20;99.90
25640;DHT22;13497;48.322;16.204;2022-11-15T06:48:09;8.20;99.90
25640;DHT22;13497;48.322;16.204;2022-11-15T06:50:34;8.20;99.90
25640;DHT22;13497;48.322;16.204;2022-11-15T06:53:01;8.20;99.90
25640;DHT22;13497;48.322;16.204;2022-11-15T06:55:27;8.20;99.90
25640;DHT22;13497;48.322;16.204;2022-11-15T06:57:53;8.20;99.90
25640;DHT22;13497;48.322;16.204;2022-11-15T07:00:20;8.10;99.90
25640;DHT22;13497;48.322;16.204;2022-11-15T07:02:46;8.20;99.90
25640;DHT22;13497;48.322;16.204;2022-11-15T07:05:13;8.20;99.90
25640;DHT22;13497;48.322;16.204;2022-11-15T07:07:39;8.10;99.90
25640;DHT22;13497;48.322;16.204;2022-11-15T07:10:06;8.10;99.90
25640;DHT22;13497;48.322;16.204;2022-11-15T07:12:32;8.20;99.90
25640;DHT22;13497;48.322;16.204;2022-11-15T07:14:57;8.20;99.90
25640;DHT22;13497;48.322;16.204;2022-11-15T07:17:23;8.20;99.90
25640;DHT22;13497;48.322;16.204;2022-11-15T07:19:48;8.20;99.90
25640;DHT22;13497;48.322;16.204;2022-11-15T07:22:14;8.30;99.90
25640;DHT22;13497;48.322;16.204;2022-11-15T07:24:40;8.20;99.90
25640;DHT22;13497;48.322;16.204;2022-11-15T07:27:05;8.10;99.90
25640;DHT22;13497;48.322;16.204;2022-11-15T07:29:31;8.00;99.90
25640;DHT22;13497;48.322;16.204;2022-11-15T07:31:56;8.10;99.90
25640;DHT22;13497;48.322;16.204;2022-11-15T07:34:22;8.10;99.90
25640;DHT22;13497;48.322;16.204;2022-11-15T07:36:49;8.10;99.90
25640;DHT22;13497;48.322;16.204;2022-11-15T07:39:15;8.00;99.90
25640;DHT22;13497;48.322;16.204;2022-11-15T07:41:40;8.10;99.90
25640;DHT22;13497;48.322;16.204;2022-11-15T07:44:06;8.20;99.90
25640;DHT22;13497;48.322;16.204;2022-11-15T07:46:32;8.20;99.90
25640;DHT22;13497;48.322;16.204;2022-11-15T07:48:57;8.10;99.90
25640;DHT22;13497;48.322;16.204;2022-11-15T07:51:23;8.00;99.90
25640;DHT22;13497;48.322;16.204;2022-11-15T07:53:49;8.00;99.90
25640;DHT22;13497;48.322;16.204;2022-11-15T07:56:14;8.00;99.90
25640;DHT22;13497;48.322;16.204;2022-11-15T07:58:40;7.90;99.90
25640;DHT22;13497;48.322;16.204;2022-11-15T08:01:07;7.90;99.90
25640;DHT22;13497;48.322;16.204;2022-11-15T08:03:34;7.90;99.90
25640;DHT22;13497;48.322;16.204;2022-11-15T08:05:59;8.00;99.90
25640;DHT22;13497;48.322;16.204;2022-11-15T08:08:25;8.10;99.90
25640;DHT22;13497;48.322;16.204;2022-11-15T08:10:51;8.10;99.90
25640;DHT22;13497;48.322;16.204;2022-11-15T08:13:16;8.20;99.90
25640;DHT22;13497;48.322;16.204;2022-11-15T08:15:42;8.10;99.90
25640;DHT22;13497;48.322;16.204;2022-11-15T08:18:14;8.10;99.90
25640;DHT22;13497;48.322;16.204;2022-11-15T08:20:40;8.10;99.90
25640;DHT22;13497;48.322;16.204;2022-11-15T08:23:07;8.10;99.90
25640;DHT22;13497;48.322;16.204;2022-11-15T08:25:34;8.30;99.90
25640;DHT22;13497;48.322;16.204;2022-11-15T08:28:03;8.50;99.90
25640;DHT22;13497;48.322;16.204;2022-11-15T08:30:30;8.60;99.90
25640;DHT22;13497;48.322;16.204;2022-11-15T08:32:59;8.80;99.90
25640;DHT22;13497;48.322;16.204;2022-11-15T08:35:25;8.90;99.90
25640;DHT22;13497;48.322;16.204;2022-11-15T08:37:52;9.00;99.90
25640;DHT22;13497;48.322;16.204;2022-11-15T08:40:18;9.10;99.90
25640;DHT22;13497;48.322;16.204;2022-11-15T08:42:46;9.00;99.90
25640;DHT22;13497;48.322;16.204;2022-11-15T08:45:12;9.00;99.90
25640;DHT22;13497;48.322;16.204;2022-11-15T08:47:38;9.00;99.90
25640;DHT22;13497;48.322;16.204;2022-11-15T08:50:04;8.90;99.90
25640;DHT22;13497;48.322;16.204;2022-11-15T08:52:30;8.80;99.90
25640;DHT22;13497;48.322;16.204;2022-11-15T08:54:57;8.80;99.90
25640;DHT22;13497;48.322;16.204;2022-11-15T08:57:22;9.00;99.90
25640;DHT22;13497;48.322;16.204;2022-11-15T08:59:48;9.00;99.90
25640;DHT22;13497;48.322;16.204;2022-11-15T09:02:14;9.10;99.90
25640;DHT22;13497;48.322;16.204;2022-11-15T09:04:43;9.00;99.90
25640;DHT22;13497;48.322;16.204;2022-11-15T09:07:10;9.00;99.90
25640;DHT22;13497;48.322;16.204;2022-11-15T09:09:36;9.10;99.90
25640;DHT22;13497;48.322;16.204;2022-11-15T09:12:03;9.20;99.90
25640;DHT22;13497;48.322;16.204;2022-11-15T09:14:29;9.00;99.90
25640;DHT22;13497;48.322;16.204;2022-11-15T09:16:54;8.90;99.90
25640;DHT22;13497;48.322;16.204;2022-11-15T09:19:20;9.00;99.90
25640;DHT22;13497;48.322;16.204;2022-11-15T09:21:46;9.00;99.90
25640;DHT22;13497;48.322;16.204;2022-11-15T09:24:11;9.00;99.90
25640;DHT22;13497;48.322;16.204;2022-11-15T09:26:37;9.00;99.90
25640;DHT22;13497;48.322;16.204;2022-11-15T09:29:03;9.00;99.90
25640;DHT22;13497;48.322;16.204;2022-11-15T09:31:29;9.10;99.90
25640;DHT22;13497;48.322;16.204;2022-11-15T09:33:56;9.20;99.90
25640;DHT22;13497;48.322;16.204;2022-11-15T09:36:22;9.30;99.90
25640;DHT22;13497;48.322;16.204;2022-11-15T09:38:48;9.40;99.90
25640;DHT22;13497;48.322;16.204;2022-11-15T09:49:04;9.30;99.90
25640;DHT22;13497;48.322;16.204;2022-11-15T09:51:38;9.30;99.90
25640;DHT22;13497;48.322;16.204;2022-11-15T09:54:37;9.40;99.90
25640;DHT22;13497;48.322;16.204;2022-11-15T09:57:04;9.30;99.90
25640;DHT22;13497;48.322;16.204;2022-11-15T09:59:44;9.30;99.90
25640;DHT22;13497;48.322;16.204;2022-11-15T10:02:43;9.20;99.90
25640;DHT22;13497;48.322;16.204;2022-11-15T10:05:16;9.10;99.90
25640;DHT22;13497;48.322;16.204;2022-11-15T10:08:11;9.00;99.90
25640;DHT22;13497;48.322;16.204;2022-11-15T10:10:44;9.00;99.90
25640;DHT22;13497;48.322;16.204;2022-11-15T10:13:26;9.10;99.90
25640;DHT22;13497;48.322;16.204;2022-11-15T10:16:04;9.20;99.90
25640;DHT22;13497;48.322;16.204;2022-11-15T10:18:54;9.20;99.90
25640;DHT22;13497;48.322;16.204;2022-11-15T10:21:33;9.40;99.90
25640;DHT22;13497;48.322;16.204;2022-11-15T10:24:11;9.50;99.90
25640;DHT22;13497;48.322;16.204;2022-11-15T10:26:37;9.70;99.90
25640;DHT22;13497;48.322;16.204;2022-11-15T10:29:02;9.60;99.90
25640;DHT22;13497;48.322;16.204;2022-11-15T10:31:28;9.50;99.90
25640;DHT22;13497;48.322;16.204;2022-11-15T10:34:26;9.60;99.90
25640;DHT22;13497;48.322;16.204;2022-11-15T10:36:58;9.70;99.90
25640;DHT22;13497;48.322;16.204;2022-11-15T10:39:24;9.80;99.90
25640;DHT22;13497;48.322;16.204;2022-11-15T10:41:51;9.80;99.90
25640;DHT22;13497;48.322;16.204;2022-11-15T10:46:44;9.80;99.90
25640;DHT22;13497;48.322;16.204;2022-11-15T10:49:23;9.90;99.90
25640;DHT22;13497;48.322;16.204;2022-11-15T10:52:15;9.70;99.90
25640;DHT22;13497;48.322;16.204;2022-11-15T10:54:48;9.50;99.90
25640;DHT22;13497;48.322;16.204;2022-11-15T10:57:19;9.50;99.90
25640;DHT22;13497;48.322;16.204;2022-11-15T10:59:53;9.30;99.90
25640;DHT22;13497;48.322;16.204;2022-11-15T11:04:56;9.50;99.90
25640;DHT22;13497;48.322;16.204;2022-11-15T11:07:25;9.70;99.90
25640;DHT22;13497;48.322;16.204;2022-11-15T11:10:00;9.70;99.90
25640;DHT22;13497;48.322;16.204;2022-11-15T11:12:31;9.60;99.90
25640;DHT22;13497;48.322;16.204;2022-11-15T11:14:59;9.50;99.90
25640;DHT22;13497;48.322;16.204;2022-11-15T11:20:25;9.80;99.90
25640;DHT22;13497;48.322;16.204;2022-11-15T11:35:19;9.20;99.90
25640;DHT22;13497;48.322;16.204;2022-11-15T11:50:49;9.40;99.90
25640;DHT22;13497;48.322;16.204;2022-11-15T11:53:25;9.40;99.90
25640;DHT22;13497;48.322;16.204;2022-11-15T11:55:54;9.40;99.90
25640;DHT22;13497;48.322;16.204;2022-11-15T11:58:35;9.40;99.90
25640;DHT22;13497;48.322;16.204;2022-11-15T12:01:24;9.50;99.90
25640;DHT22;13497;48.322;16.204;2022-11-15T12:04:01;9.50;99.90
25640;DHT22;13497;48.322;16.204;2022-11-15T12:07:03;9.50;99.90
25640;DHT22;13497;48.322;16.204;2022-11-15T12:10:07;9.50;99.90
25640;DHT22;13497;48.322;16.204;2022-11-15T12:15:27;9.50;99.90
25640;DHT22;13497;48.322;16.204;2022-11-15T12:17:55;9.40;99.90
25640;DHT22;13497;48.322;16.204;2022-11-15T12:20:25;9.40;99.90
25640;DHT22;13497;48.322;16.204;2022-11-15T12:23:15;9.20;99.90
25640;DHT22;13497;48.322;16.204;2022-11-15T12:31:03;9.20;99.90
25640;DHT22;13497;48.322;16.204;2022-11-15T12:33:44;9.20;99.90
25640;DHT22;13497;48.322;16.204;2022-11-15T12:41:18;9.40;99.90
25640;DHT22;13497;48.322;16.204;2022-11-15T12:43:46;9.40;99.90
25640;DHT22;13497;48.322;16.204;2022-11-15T13:17:48;9.00;99.90
25640;DHT22;13497;48.322;16.204;2022-11-15T13:23:12;8.90;99.90
25640;DHT22;13497;48.322;16.204;2022-11-15T13:31:24;9.10;99.90
25640;DHT22;13497;48.322;16.204;2022-11-15T13:33:51;9.20;99.90
25640;DHT22;13497;48.322;16.204;2022-11-15T13:39:14;9.10;99.90
25640;DHT22;13497;48.322;16.204;2022-11-15T13:41:51;9.10;99.90
25640;DHT22;13497;48.322;16.204;2022-11-15T13:44:28;9.10;99.90
25640;DHT22;13497;48.322;16.204;2022-11-15T13:47:13;9.00;99.90
25640;DHT22;13497;48.322;16.204;2022-11-15T13:49:39;9.00;99.90
25640;DHT22;13497;48.322;16.204;2022-11-15T13:52:07;8.90;99.90
25640;DHT22;13497;48.322;16.204;2022-11-15T13:54:34;8.80;99.90
25640;DHT22;13497;48.322;16.204;2022-11-15T13:57:24;8.70;99.90
25640;DHT22;13497;48.322;16.204;2022-11-15T13:59:57;8.80;99.90
25640;DHT22;13497;48.322;16.204;2022-11-15T14:02:27;8.80;99.90
25640;DHT22;13497;48.322;16.204;2022-11-15T14:04:58;8.70;99.90
25640;DHT22;13497;48.322;16.204;2022-11-15T14:07:26;8.70;99.90
25640;DHT22;13497;48.322;16.204;2022-11-15T14:09:53;8.80;99.90
25640;DHT22;13497;48.322;16.204;2022-11-15T14:12:23;8.80;99.90
25640;DHT22;13497;48.322;16.204;2022-11-15T14:14:49;8.90;99.90
25640;DHT22;13497;48.322;16.204;2022-11-15T14:17:34;9.10;99.90
25640;DHT22;13497;48.322;16.204;2022-11-15T14:20:00;9.10;99.90
25640;DHT22;13497;48.322;16.204;2022-11-15T14:22:30;9.10;99.90
25640;DHT22;13497;48.322;16.204;2022-11-15T14:25:18;9.10;99.90
25640;DHT22;13497;48.322;16.204;2022-11-15T14:30:50;9.10;99.90
25640;DHT22;13497;48.322;16.204;2022-11-15T14:33:34;9.20;99.90
25640;DHT22;13497;48.322;16.204;2022-11-15T14:36:19;9.20;99.90
25640;DHT22;13497;48.322;16.204;2022-11-15T14:38:46;9.30;99.90
25640;DHT22;13497;48.322;16.204;2022-11-15T14:43:44;9.50;99.90
25640;DHT22;13497;48.322;16.204;2022-11-15T14:46:09;9.40;99.90
25640;DHT22;13497;48.322;16.204;2022-11-15T14:48:35;9.40;99.90
25640;DHT22;13497;48.322;16.204;2022-11-15T14:51:01;9.40;99.90
25640;DHT22;13497;48.322;16.204;2022-11-15T14:53:27;9.40;99.90
25640;DHT22;13497;48.322;16.204;2022-11-15T14:55:54;9.50;99.90
25640;DHT22;13497;48.322;16.204;2022-11-15T14:58:19;9.50;99.90
25640;DHT22;13497;48.322;16.204;2022-11-15T15:00:45;9.40;99.90
25640;DHT22;13497;48.322;16.204;2022-11-15T15:03:10;9.40;99.90
25640;DHT22;13497;48.322;16.204;2022-11-15T15:05:39;9.50;99.90
25640;DHT22;13497;48.322;16.204;2022-11-15T15:08:05;9.50;99.90
25640;DHT22;13497;48.322;16.204;2022-11-15T15:10:34;9.50;99.90
25640;DHT22;13497;48.322;16.204;2022-11-15T15:13:01;9.50;99.90
25640;DHT22;13497;48.322;16.204;2022-11-15T15:15:33;9.50;99.90
25640;DHT22;13497;48.322;16.204;2022-11-15T15:17:59;9.50;99.90
25640;DHT22;13497;48.322;16.204;2022-11-15T15:20:25;9.40;99.90
25640;DHT22;13497;48.322;16.204;2022-11-15T15:22:51;9.40;99.90
25640;DHT22;13497;48.322;16.204;2022-11-15T15:25:23;9.40;99.90
25640;DHT22;13497;48.322;16.204;2022-11-15T15:27:49;9.40;99.90
25640;DHT22;13497;48.322;16.204;2022-11-15T15:30:15;9.40;99.90
25640;DHT22;13497;48.322;16.204;2022-11-15T15:32:41;9.40;99.90
25640;DHT22;13497;48.322;16.204;2022-11-15T15:35:10;9.30;99.90
25640;DHT22;13497;48.322;16.204;2022-11-15T15:37:36;9.40;99.90
25640;DHT22;13497;48.322;16.204;2022-11-15T15:40:02;9.40;99.90
25640;DHT22;13497;48.322;16.204;2022-11-15T15:42:27;9.30;99.90
25640;DHT22;13497;48.322;16.204;2022-11-15T15:44:53;9.30;99.90
25640;DHT22;13497;48.322;16.204;2022-11-15T15:47:20;9.40;99.90
25640;DHT22;13497;48.322;16.204;2022-11-15T15:49:47;9.40;99.90
25640;DHT22;13497;48.322;16.204;2022-11-15T15:52:13;9.40;99.90
25640;DHT22;13497;48.322;16.204;2022-11-15T15:54:39;9.40;99.90
25640;DHT22;13497;48.322;16.204;2022-11-15T15:57:05;9.30;99.90
25640;DHT22;13497;48.322;16.204;2022-11-15T15:59:31;9.30;99.90
25640;DHT22;13497;48.322;16.204;2022-11-15T16:01:57;9.30;99.90
25640;DHT22;13497;48.322;16.204;2022-11-15T16:04:22;9.40;99.90
25640;DHT22;13497;48.322;16.204;2022-11-15T16:06:48;9.40;99.90
25640;DHT22;13497;48.322;16.204;2022-11-15T16:09:17;9.40;99.90
25640;DHT22;13497;48.322;16.204;2022-11-15T16:11:46;9.50;99.90
25640;DHT22;13497;48.322;16.204;2022-11-15T16:14:12;9.50;99.90
25640;DHT22;13497;48.322;16.204;2022-11-15T16:16:38;9.50;99.90
25640;DHT22;13497;48.322;16.204;2022-11-15T16:19:04;9.40;99.90
25640;DHT22;13497;48.322;16.204;2022-11-15T16:21:30;9.30;99.90
25640;DHT22;13497;48.322;16.204;2022-11-15T16:23:56;9.30;99.90
25640;DHT22;13497;48.322;16.204;2022-11-15T16:26:25;9.30;99.90
25640;DHT22;13497;48.322;16.204;2022-11-15T16:28:51;9.20;99.90
25640;DHT22;13497;48.322;16.204;2022-11-15T16:31:17;9.30;99.90
25640;DHT22;13497;48.322;16.204;2022-11-15T16:33:45;9.30;99.90
25640;DHT22;13497;48.322;16.204;2022-11-15T16:36:25;9.30;99.90
25640;DHT22;13497;48.322;16.204;2022-11-15T16:38:51;9.40;99.90
25640;DHT22;13497;48.322;16.204;2022-11-15T16:41:18;9.40;99.90
25640;DHT22;13497;48.322;16.204;2022-11-15T16:43:45;9.40;99.90
25640;DHT22;13497;48.322;16.204;2022-11-15T16:46:20;9.50;99.90
25640;DHT22;13497;48.322;16.204;2022-11-15T16:48:46;9.40;99.90
25640;DHT22;13497;48.322;16.204;2022-11-15T16:51:12;9.50;99.90
25640;DHT22;13497;48.322;16.204;2022-11-15T16:53:38;9.50;99.90
25640;DHT22;13497;48.322;16.204;2022-11-15T16:56:12;9.50;99.90
25640;DHT22;13497;48.322;16.204;2022-11-15T16:58:39;9.50;99.90
25640;DHT22;13497;48.322;16.204;2022-11-15T17:01:05;9.50;99.90
25640;DHT22;13497;48.322;16.204;2022-11-15T17:03:30;9.50;99.90
25640;DHT22;13497;48.322;16.204;2022-11-15T17:05:59;9.50;99.90
25640;DHT22;13497;48.322;16.204;2022-11-15T17:08:24;9.60;99.90
25640;DHT22;13497;48.322;16.204;2022-11-15T17:10:50;9.50;99.90
25640;DHT22;13497;48.322;16.204;2022-11-15T17:13:16;9.60;99.90
25640;DHT22;13497;48.322;16.204;2022-11-15T17:15:42;9.60;99.90
25640;DHT22;13497;48.322;16.204;2022-11-15T17:18:11;9.50;99.90
25640;DHT22;13497;48.322;16.204;2022-11-15T17:20:39;9.50;99.90
25640;DHT22;13497;48.322;16.204;2022-11-15T17:23:04;9.50;99.90
25640;DHT22;13497;48.322;16.204;2022-11-15T17:25:36;9.40;99.90
25640;DHT22;13497;48.322;16.204;2022-11-15T17:28:02;9.30;99.90
25640;DHT22;13497;48.322;16.204;2022-11-15T17:30:27;9.30;99.90
25640;DHT22;13497;48.322;16.204;2022-11-15T17:32:53;9.30;99.90
25640;DHT22;13497;48.322;16.204;2022-11-15T17:35:19;9.30;99.90
25640;DHT22;13497;48.322;16.204;2022-11-15T17:37:45;9.40;99.90
25640;DHT22;13497;48.322;16.204;2022-11-15T17:40:12;9.30;99.90
25640;DHT22;13497;48.322;16.204;2022-11-15T17:42:40;9.30;99.90
25640;DHT22;13497;48.322;16.204;2022-11-15T17:45:06;9.30;99.90
25640;DHT22;13497;48.322;16.204;2022-11-15T17:47:32;9.40;99.90
25640;DHT22;13497;48.322;16.204;2022-11-15T17:49:58;9.50;99.90
25640;DHT22;13497;48.322;16.204;2022-11-15T17:52:23;9.50;99.90
25640;DHT22;13497;48.322;16.204;2022-11-15T17:54:49;9.50;99.90
25640;DHT22;13497;48.322;16.204;2022-11-15T17:57:14;9.50;99.90